SBGL Airport Information

Runway Information
Runway 10 Length 13123 ft width 148 ft
Elevation 16 ft Threshold 0 ft Heading 74
Runway 28 Length 13123 ft Width 148 ft
Elevation 28 ft Threshold 0 ft Heading 254
Runway 15 Length 10433 ft width 154 ft
Elevation 16 ft Threshold 0 ft Heading 125
Runway 33 Length 10433 ft Width 154 ft
Elevation 11 ft Threshold 0 ft Heading 305
Airport Frequencies
Type APP Name RIO APP Frequency 119.35 MHZ
Type ATIS Name ATIS Frequency 127.6 MHZ
Type CLD Name CLNC DEL Frequency 121 MHZ
Type GND Name GND Frequency 121.65 MHZ
Type OPS Name OPS Frequency 122.5 MHZ
Type TWR Name TWR Frequency 118 MHZ
Airport Navaids
Type VOR-DME Name Caxias Frequency 113000 KHZ
Type NDB Name Caxias Frequency 400 KHZ
Type NDB Name Meriti Frequency 290 KHZ
Type VOR-DME Name Porto Frequency 114600 KHZ
Type NDB Name Ilha Frequency 330 KHZ
Airport Weather Information & NOTAM
ADDS - METARS form results

(0124 UTC 26 February 2018)
 
METAR text: SBGL 260100Z 10007KT 9999 FEW030 BKN080 26/20 Q1015
Conditions at: SBGL (GALEAO/RIO(CIV/M, BR) observed 0100 UTC 26 February 2018
Temperature: 26.0°C (79°F)
Dewpoint: 20.0°C (68°F) [RH = 70%]
Pressure (altimeter): 29.97 inches Hg (1015.0 mb)
Winds: from the E (100 degrees) at 8 MPH (7 knots; 3.6 m/s)
Visibility: 6 or more miles (10+ km)
Ceiling: 8000 feet AGL
Clouds: few clouds at 3000 feet AGL
broken clouds at 8000 feet AGL
Weather: no significant weather observed at this time